Time;durP1;ratioP1;P1;durP2;ratioP2;P2;SDS_P1;SDS_P2;PMS_P1;PMS_P2;Temp;Humidity;BMP_temperature;BMP_pressure;BME280_temperature;BME280_humidity;BME280_pressure;Samples;Min_cycle;Max_cycle;Signal;HPM_P1;HPM_P2
2021/07/09 00:01:59;;;;;;;67.07;42.30;;;16.30;99.90;;;;;;5090558;28;20111;-72
2021/07/09 00:04:26;;;;;;;67.00;44.13;;;16.40;99.90;;;;;;5089519;28;20052;-72
2021/07/09 00:06:52;;;;;;;68.63;44.30;;;16.40;99.90;;;;;;5091172;28;20039;-72
2021/07/09 00:09:18;;;;;;;63.08;42.70;;;16.30;99.90;;;;;;5090218;28;20497;-72
2021/07/09 00:11:46;;;;;;;65.68;44.22;;;16.30;99.90;;;;;;5090882;28;20035;-72
2021/07/09 00:14:14;;;;;;;76.05;42.95;;;16.30;99.90;;;;;;5090872;28;20020;-72
2021/07/09 00:16:41;;;;;;;73.53;43.67;;;16.40;99.90;;;;;;5089305;28;20035;-72
2021/07/09 00:19:07;;;;;;;65.53;43.72;;;16.30;99.90;;;;;;5091018;28;20578;-72
2021/07/09 00:21:34;;;;;;;64.13;43.85;;;16.30;99.90;;;;;;5089506;28;20470;-72
2021/07/09 00:24:01;;;;;;;65.22;43.92;;;16.30;99.90;;;;;;5089884;28;20021;-72
2021/07/09 00:26:28;;;;;;;75.43;44.25;;;16.30;99.90;;;;;;5090807;28;20033;-72
2021/07/09 00:28:54;;;;;;;70.85;45.03;;;16.30;99.90;;;;;;5089662;28;20020;-72
2021/07/09 00:31:19;;;;;;;68.72;45.05;;;16.40;99.90;;;;;;5090746;28;20098;-72
2021/07/09 00:33:45;;;;;;;65.13;42.95;;;16.40;99.90;;;;;;5090454;28;20470;-72
2021/07/09 00:36:11;;;;;;;67.07;42.80;;;16.30;99.90;;;;;;5090657;28;20062;-71
2021/07/09 00:38:36;;;;;;;66.75;43.50;;;16.20;99.90;;;;;;5090083;28;20047;-72
2021/07/09 00:41:02;;;;;;;67.13;42.65;;;16.20;99.90;;;;;;5072001;28;20377;-72
2021/07/09 00:43:28;;;;;;;69.40;45.08;;;16.30;99.90;;;;;;5090259;28;20032;-72
2021/07/09 00:45:54;;;;;;;76.32;45.72;;;16.20;99.90;;;;;;5090171;28;20024;-72
2021/07/09 00:48:19;;;;;;;69.22;44.40;;;16.30;99.90;;;;;;5088637;28;20025;-72
2021/07/09 00:50:45;;;;;;;65.13;43.20;;;16.30;99.90;;;;;;5090096;28;20032;-72
2021/07/09 00:53:11;;;;;;;66.78;43.38;;;16.40;99.90;;;;;;5090077;28;20028;-72
2021/07/09 00:55:36;;;;;;;71.28;44.45;;;16.30;99.90;;;;;;5090322;28;20533;-72
2021/07/09 00:58:03;;;;;;;75.57;42.95;;;16.30;99.90;;;;;;5066193;28;20078;-72
2021/07/09 01:00:30;;;;;;;71.95;44.10;;;16.30;99.90;;;;;;5074905;28;20060;-72
2021/07/09 01:02:56;;;;;;;71.85;44.00;;;16.30;99.90;;;;;;5076716;28;20029;-72
2021/07/09 01:05:23;;;;;;;68.20;45.08;;;16.30;99.90;;;;;;5076627;28;20123;-72
2021/07/09 01:07:49;;;;;;;73.53;44.47;;;16.30;99.90;;;;;;5076523;28;20083;-72
2021/07/09 01:10:18;;;;;;;69.20;44.20;;;16.30;99.90;;;;;;5076569;28;20465;-72
2021/07/09 01:12:44;;;;;;;67.32;43.90;;;16.30;99.90;;;;;;5076231;28;20107;-72
2021/07/09 01:15:12;;;;;;;75.15;44.22;;;16.30;99.90;;;;;;5074935;28;20024;-72
2021/07/09 01:17:38;;;;;;;72.40;45.72;;;16.30;99.90;;;;;;5076424;28;20020;-72
2021/07/09 01:20:08;;;;;;;71.70;44.63;;;16.30;99.90;;;;;;5076361;28;20028;-72
2021/07/09 01:22:37;;;;;;;69.97;45.95;;;16.30;99.90;;;;;;5075151;28;20359;-71
2021/07/09 01:25:09;;;;;;;73.22;47.45;;;16.30;99.90;;;;;;5076258;28;20028;-72
2021/07/09 01:27:37;;;;;;;70.03;45.30;;;16.40;99.90;;;;;;5076147;28;20028;-72
2021/07/09 01:30:08;;;;;;;73.63;44.90;;;16.30;99.90;;;;;;5076170;28;20025;-72
2021/07/09 01:32:33;;;;;;;71.82;46.53;;;16.40;99.90;;;;;;5076143;28;20421;-71
2021/07/09 01:34:59;;;;;;;73.85;48.38;;;16.30;99.90;;;;;;5076063;28;20020;-72
2021/07/09 01:37:25;;;;;;;73.30;48.42;;;16.40;99.90;;;;;;5076026;28;20024;-71
2021/07/09 01:39:50;;;;;;;77.15;50.78;;;16.30;99.90;;;;;;5074191;28;20367;-72
2021/07/09 01:42:16;;;;;;;78.07;50.85;;;16.30;99.90;;;;;;5075968;28;20060;-72
2021/07/09 01:44:42;;;;;;;82.13;53.58;;;16.30;99.90;;;;;;5075900;28;20029;-72
2021/07/09 01:47:08;;;;;;;82.80;56.03;;;16.30;99.90;;;;;;5073813;28;20048;-72
2021/07/09 01:49:50;;;;;;;78.78;54.20;;;16.30;99.90;;;;;;5075818;28;20021;-72
2021/07/09 01:52:16;;;;;;;79.15;52.38;;;16.30;99.90;;;;;;5075491;28;20020;-72
2021/07/09 01:54:42;;;;;;;82.20;50.92;;;16.30;99.90;;;;;;5075159;28;20021;-72
2021/07/09 01:57:08;;;;;;;81.60;51.95;;;16.30;99.90;;;;;;5075715;28;20027;-72
2021/07/09 01:59:33;;;;;;;71.90;49.40;;;16.30;99.90;;;;;;5075668;28;20040;-72
2021/07/09 02:01:59;;;;;;;74.45;49.35;;;16.30;99.90;;;;;;5075560;28;20032;-72
2021/07/09 02:04:24;;;;;;;80.85;50.05;;;16.30;99.90;;;;;;5074426;28;20031;-72
2021/07/09 02:06:50;;;;;;;74.07;49.00;;;16.20;99.90;;;;;;5074090;28;20526;-72
2021/07/09 02:09:15;;;;;;;80.28;50.60;;;16.30;99.90;;;;;;5074846;28;20025;-72
2021/07/09 02:11:41;;;;;;;81.45;51.50;;;16.20;99.90;;;;;;5073872;28;20024;-72
2021/07/09 02:14:06;;;;;;;80.13;53.67;;;16.20;99.90;;;;;;5075361;28;20462;-72
2021/07/09 02:16:32;;;;;;;82.50;52.75;;;16.10;99.90;;;;;;5074982;28;20025;-72
2021/07/09 02:18:57;;;;;;;80.13;51.38;;;16.20;99.90;;;;;;5074079;28;20028;-72
2021/07/09 02:21:23;;;;;;;90.15;51.33;;;16.20;99.90;;;;;;5075173;28;20025;-72
2021/07/09 02:23:49;;;;;;;94.30;52.60;;;16.20;99.90;;;;;;5073722;28;20385;-72
2021/07/09 02:26:14;;;;;;;75.95;49.25;;;16.20;99.90;;;;;;5073744;28;20466;-72
2021/07/09 02:28:40;;;;;;;91.93;53.95;;;16.20;99.90;;;;;;5074768;28;20017;-72
2021/07/09 02:31:05;;;;;;;76.70;51.90;;;16.20;99.90;;;;;;5074748;28;20104;-72
2021/07/09 02:33:31;;;;;;;78.57;51.72;;;16.20;99.90;;;;;;5074933;28;20458;-72
2021/07/09 02:35:56;;;;;;;85.47;51.50;;;16.30;99.90;;;;;;5074889;28;20035;-72
2021/07/09 02:38:22;;;;;;;81.45;51.60;;;16.30;99.90;;;;;;5074543;28;20020;-72
2021/07/09 02:40:47;;;;;;;87.55;54.38;;;16.30;99.90;;;;;;5074530;28;20024;-71
2021/07/09 02:43:13;;;;;;;81.70;52.20;;;16.20;99.90;;;;;;5074464;28;20096;-72
2021/07/09 02:45:38;;;;;;;87.45;52.05;;;16.30;99.90;;;;;;5074670;28;20028;-72
2021/07/09 02:48:04;;;;;;;82.82;53.92;;;16.20;99.90;;;;;;5073903;28;20059;-72
2021/07/09 02:50:30;;;;;;;87.35;54.45;;;16.30;99.90;;;;;;5074591;28;20044;-72
2021/07/09 02:52:55;;;;;;;83.50;53.90;;;16.20;99.90;;;;;;5074603;28;20078;-72
2021/07/09 02:55:22;;;;;;;86.72;53.15;;;16.20;99.90;;;;;;5074545;28;20423;-72
2021/07/09 02:57:48;;;;;;;84.65;53.72;;;16.20;99.90;;;;;;5074480;28;20051;-71
2021/07/09 03:00:16;;;;;;;81.75;52.72;;;16.30;99.90;;;;;;5074444;28;20478;-72
2021/07/09 03:02:42;;;;;;;80.00;51.47;;;16.30;99.90;;;;;;5073885;28;20043;-72
2021/07/09 03:05:09;;;;;;;81.53;52.10;;;16.30;99.90;;;;;;5074377;28;20107;-72
2021/07/09 03:07:35;;;;;;;88.90;53.40;;;16.20;99.90;;;;;;5074307;28;20017;-72
2021/07/09 03:10:02;;;;;;;85.70;52.50;;;16.20;99.90;;;;;;5073136;28;20021;-72
2021/07/09 03:12:29;;;;;;;85.18;53.00;;;16.20;99.90;;;;;;5074295;28;20450;-72
2021/07/09 03:14:54;;;;;;;79.28;51.60;;;16.20;99.90;;;;;;5074237;28;20039;-71
2021/07/09 03:17:20;;;;;;;86.68;54.58;;;16.10;99.90;;;;;;5074197;28;20466;-72
2021/07/09 03:19:45;;;;;;;82.32;51.53;;;16.20;99.90;;;;;;5074179;28;20032;-72
2021/07/09 03:22:11;;;;;;;80.38;50.22;;;16.20;99.90;;;;;;5073884;28;20050;-72
2021/07/09 03:24:37;;;;;;;79.72;52.00;;;16.10;99.90;;;;;;5074143;28;20020;-72
2021/07/09 03:27:04;;;;;;;77.50;50.38;;;16.10;99.90;;;;;;5074008;28;20024;-72
2021/07/09 03:29:30;;;;;;;78.32;47.65;;;16.10;99.90;;;;;;5073461;28;20020;-72
2021/07/09 03:31:55;;;;;;;76.80;50.42;;;16.10;99.90;;;;;;5073804;28;20070;-72
2021/07/09 03:34:21;;;;;;;81.20;49.25;;;16.00;99.90;;;;;;5073732;28;20029;-72
2021/07/09 03:36:48;;;;;;;85.45;49.08;;;16.00;99.90;;;;;;5073977;28;20035;-72
2021/07/09 03:39:13;;;;;;;76.03;48.78;;;16.00;99.90;;;;;;5073984;28;20044;-72
2021/07/09 03:41:41;;;;;;;68.72;48.45;;;16.00;99.90;;;;;;5073916;28;20417;-72
2021/07/09 03:44:07;;;;;;;74.57;49.40;;;16.00;99.90;;;;;;5073626;28;20029;-72
2021/07/09 03:46:34;;;;;;;77.00;49.03;;;16.00;99.90;;;;;;5073447;28;20063;-72
2021/07/09 03:48:59;;;;;;;78.20;48.30;;;16.10;99.90;;;;;;5073874;28;20032;-72
2021/07/09 03:51:25;;;;;;;71.60;46.55;;;16.20;99.90;;;;;;5073885;28;20074;-72
2021/07/09 03:53:54;;;;;;;73.88;48.17;;;16.20;99.90;;;;;;5072029;28;20466;-72
2021/07/09 03:56:20;;;;;;;78.28;48.42;;;16.20;99.90;;;;;;5073840;28;20039;-72
2021/07/09 03:58:46;;;;;;;75.80;48.88;;;16.10;99.90;;;;;;5072440;28;20020;-72
2021/07/09 04:01:11;;;;;;;79.05;49.78;;;16.10;99.90;;;;;;5071935;28;20048;-72
2021/07/09 04:03:37;;;;;;;81.38;48.63;;;16.10;99.90;;;;;;5073740;28;20090;-72
2021/07/09 04:06:02;;;;;;;77.38;47.35;;;16.10;99.90;;;;;;5073646;28;20028;-72
2021/07/09 04:08:28;;;;;;;72.03;46.35;;;16.10;99.90;;;;;;5073662;28;20031;-72
2021/07/09 04:10:53;;;;;;;76.43;47.00;;;16.10;99.90;;;;;;5073671;28;20039;-72
2021/07/09 04:13:19;;;;;;;69.57;45.95;;;16.10;99.90;;;;;;5073575;28;20477;-72
2021/07/09 04:15:44;;;;;;;66.30;44.78;;;16.10;99.90;;;;;;5073641;28;20029;-72
2021/07/09 04:18:10;;;;;;;72.40;45.60;;;16.20;99.90;;;;;;5055612;28;20423;-71
2021/07/09 04:20:36;;;;;;;61.63;43.95;;;16.20;99.90;;;;;;5073560;28;20031;-71
2021/07/09 04:23:02;;;;;;;68.25;45.58;;;16.20;99.90;;;;;;5073507;28;20047;-72
2021/07/09 04:25:27;;;;;;;74.57;44.83;;;16.20;99.90;;;;;;5073520;28;20078;-72
2021/07/09 04:27:53;;;;;;;70.53;44.80;;;16.20;99.90;;;;;;5072883;28;20129;-72
2021/07/09 04:30:19;;;;;;;60.47;43.88;;;16.20;99.90;;;;;;5073167;28;20119;-72
2021/07/09 04:32:44;;;;;;;62.38;42.45;;;16.20;99.90;;;;;;5073148;28;20109;-72
2021/07/09 04:35:11;;;;;;;72.07;44.65;;;16.20;99.90;;;;;;5077152;28;20032;-72
2021/07/09 04:37:36;;;;;;;65.85;44.13;;;16.20;99.90;;;;;;5075343;28;20067;-72
2021/07/09 04:40:04;;;;;;;59.88;41.85;;;16.20;99.90;;;;;;5077103;28;20048;-72
2021/07/09 04:42:29;;;;;;;65.95;43.60;;;16.20;99.90;;;;;;5076519;28;20024;-72
2021/07/09 04:44:55;;;;;;;66.80;43.40;;;16.20;99.90;;;;;;5076750;28;20043;-72
2021/07/09 04:47:21;;;;;;;65.63;43.75;;;16.30;99.90;;;;;;5076289;28;20037;-72
2021/07/09 04:49:46;;;;;;;64.10;43.53;;;16.30;99.90;;;;;;5076952;28;20032;-72
2021/07/09 04:52:12;;;;;;;63.95;42.60;;;16.40;99.90;;;;;;5076866;28;20514;-72
2021/07/09 04:54:37;;;;;;;63.00;43.78;;;16.40;99.90;;;;;;5075433;28;20016;-72
2021/07/09 04:57:03;;;;;;;66.43;42.03;;;16.40;99.90;;;;;;5076523;28;20051;-72
2021/07/09 04:59:29;;;;;;;58.83;41.78;;;16.50;99.90;;;;;;5076762;28;20044;-72
2021/07/09 05:01:54;;;;;;;65.93;42.97;;;16.50;99.90;;;;;;5076453;28;20017;-71
2021/07/09 05:04:20;;;;;;;61.50;40.95;;;16.60;99.90;;;;;;5074850;28;20082;-72
2021/07/09 05:06:45;;;;;;;59.28;39.85;;;16.70;99.90;;;;;;5075854;28;20036;-72
2021/07/09 05:09:11;;;;;;;56.00;39.97;;;16.60;99.90;;;;;;5075099;28;20035;-72
2021/07/09 05:11:38;;;;;;;60.22;38.35;;;16.60;99.90;;;;;;5076519;28;20047;-72
2021/07/09 05:14:05;;;;;;;57.70;40.17;;;16.60;99.90;;;;;;5076483;28;20016;-72
2021/07/09 05:16:33;;;;;;;68.63;41.38;;;16.70;99.90;;;;;;5075013;28;20025;-72
2021/07/09 05:19:00;;;;;;;68.25;40.03;;;16.60;99.90;;;;;;5076121;28;20115;-72
2021/07/09 05:21:26;;;;;;;62.17;40.72;;;16.70;99.90;;;;;;5076366;28;20489;-72
2021/07/09 05:23:52;;;;;;;62.58;39.80;;;16.70;99.90;;;;;;5076316;28;20056;-72
2021/07/09 05:26:18;;;;;;;58.92;41.22;;;16.70;99.90;;;;;;5075219;28;20029;-72
2021/07/09 05:28:44;;;;;;;59.05;40.80;;;16.70;99.90;;;;;;5074712;28;20024;-72
2021/07/09 05:31:09;;;;;;;59.05;42.33;;;16.70;99.90;;;;;;5076193;28;20017;-72
2021/07/09 05:33:35;;;;;;;55.50;40.60;;;16.80;99.90;;;;;;5075610;28;20025;-72
2021/07/09 05:36:00;;;;;;;60.05;40.85;;;16.80;99.90;;;;;;5075839;28;20024;-72
2021/07/09 05:38:26;;;;;;;57.92;38.58;;;16.80;99.90;;;;;;5076059;28;20051;-72
2021/07/09 05:40:51;;;;;;;57.97;40.08;;;16.90;99.90;;;;;;5075989;28;20109;-72
2021/07/09 05:43:19;;;;;;;62.30;40.40;;;16.90;99.90;;;;;;5075981;28;20111;-72
2021/07/09 05:45:44;;;;;;;53.22;37.60;;;17.00;99.90;;;;;;5074652;28;20464;-72
2021/07/09 05:48:10;;;;;;;55.95;37.47;;;17.00;99.90;;;;;;5075184;28;20071;-72
2021/07/09 05:50:35;;;;;;;50.97;38.25;;;17.00;99.90;;;;;;5075819;28;20489;-72
2021/07/09 05:53:01;;;;;;;57.58;34.17;;;17.00;99.90;;;;;;5075193;28;20079;-72
2021/07/09 05:55:27;;;;;;;49.92;32.92;;;17.00;99.90;;;;;;5075753;28;20036;-72
2021/07/09 05:57:53;;;;;;;50.80;34.58;;;17.10;99.90;;;;;;5075099;28;20031;-72
2021/07/09 06:00:18;;;;;;;46.80;33.55;;;17.10;99.90;;;;;;5075619;28;20032;-72
2021/07/09 06:02:44;;;;;;;51.03;33.92;;;17.20;99.90;;;;;;5074408;28;20054;-71
2021/07/09 06:05:10;;;;;;;41.50;31.75;;;17.40;99.90;;;;;;5074801;28;20070;-72
2021/07/09 06:07:36;;;;;;;48.53;32.53;;;17.50;99.90;;;;;;5074313;28;20055;-72
2021/07/09 06:10:03;;;;;;;43.90;31.60;;;17.50;99.90;;;;;;5073206;28;20381;-72
2021/07/09 06:12:29;;;;;;;42.97;29.67;;;17.50;99.90;;;;;;5075117;28;20571;-72
2021/07/09 06:14:55;;;;;;;39.17;27.75;;;17.70;99.90;;;;;;5075280;28;20028;-72
2021/07/09 06:17:21;;;;;;;42.15;28.70;;;17.80;99.90;;;;;;5074043;28;20107;-72
2021/07/09 06:19:47;;;;;;;47.35;27.88;;;17.80;99.90;;;;;;5074517;28;20111;-72
2021/07/09 06:22:13;;;;;;;35.28;25.90;;;17.80;99.90;;;;;;5073863;28;20032;-72
2021/07/09 06:24:38;;;;;;;36.53;26.95;;;17.80;99.90;;;;;;5075057;28;20132;-72
2021/07/09 06:27:05;;;;;;;37.05;26.08;;;17.90;99.90;;;;;;5074643;28;20446;-72
2021/07/09 06:29:30;;;;;;;38.85;26.98;;;17.90;99.90;;;;;;5073483;28;20107;-71
2021/07/09 06:31:56;;;;;;;34.38;25.40;;;18.00;99.90;;;;;;5074969;28;20101;-72
2021/07/09 06:34:21;;;;;;;33.20;24.08;;;18.00;99.90;;;;;;5072645;28;20455;-71
2021/07/09 06:36:47;;;;;;;32.55;24.00;;;18.00;99.90;;;;;;5071882;28;20445;-70
2021/07/09 06:39:13;;;;;;;39.00;24.80;;;18.00;99.90;;;;;;5073349;28;20029;-71
2021/07/09 06:41:38;;;;;;;37.85;22.92;;;17.90;99.90;;;;;;5066304;28;20558;-72
2021/07/09 06:44:04;;;;;;;36.38;23.55;;;18.00;99.90;;;;;;5073869;28;20028;-73
2021/07/09 06:46:30;;;;;;;37.92;23.63;;;17.90;99.90;;;;;;5072367;28;20040;-72
2021/07/09 06:48:55;;;;;;;34.50;23.90;;;17.80;99.90;;;;;;5073040;28;20025;-71
2021/07/09 06:51:24;;;;;;;35.10;24.15;;;17.90;99.90;;;;;;5073035;28;20040;-70
2021/07/09 06:53:49;;;;;;;32.15;22.85;;;17.90;99.90;;;;;;5072546;28;20107;-70
2021/07/09 06:56:16;;;;;;;29.58;21.98;;;17.80;99.90;;;;;;5071869;28;20104;-71
2021/07/09 06:58:42;;;;;;;32.35;22.35;;;17.80;99.90;;;;;;5073202;28;20035;-72
2021/07/09 07:01:08;;;;;;;32.33;21.60;;;17.90;99.90;;;;;;5073306;28;20432;-72
2021/07/09 07:03:34;;;;;;;29.92;20.60;;;18.00;99.90;;;;;;5072111;28;20028;-71
2021/07/09 07:06:02;;;;;;;26.98;20.38;;;18.10;99.90;;;;;;5071813;28;20041;-72
2021/07/09 07:08:28;;;;;;;27.05;20.33;;;18.10;99.90;;;;;;5073462;28;20044;-72
2021/07/09 07:10:56;;;;;;;31.92;19.77;;;18.20;99.90;;;;;;5071186;28;20514;-71
2021/07/09 07:13:23;;;;;;;25.08;18.38;;;18.10;99.90;;;;;;5072375;28;20021;-72
2021/07/09 07:15:49;;;;;;;30.75;20.58;;;18.20;99.90;;;;;;5055653;28;20032;-72
2021/07/09 07:18:15;;;;;;;27.58;19.73;;;18.20;99.90;;;;;;5073200;28;20040;-71
2021/07/09 07:20:44;;;;;;;26.27;19.25;;;18.30;99.90;;;;;;5056062;28;20078;-72
2021/07/09 07:23:12;;;;;;;27.83;19.65;;;18.40;99.90;;;;;;5073677;28;20024;-71
2021/07/09 07:25:38;;;;;;;26.13;18.75;;;18.50;99.90;;;;;;5072041;28;20378;-71
2021/07/09 07:28:05;;;;;;;28.83;18.45;;;18.60;99.90;;;;;;5073003;28;20039;-72
2021/07/09 07:30:32;;;;;;;27.98;18.33;;;18.60;99.90;;;;;;5073736;28;20500;-72
2021/07/09 07:32:57;;;;;;;24.75;16.85;;;18.80;99.90;;;;;;5072436;28;20028;-71
2021/07/09 07:35:23;;;;;;;21.88;16.65;;;18.90;99.90;;;;;;5073086;28;20094;-72
2021/07/09 07:37:49;;;;;;;19.92;15.70;;;19.00;99.90;;;;;;5072335;28;20063;-72
2021/07/09 07:40:15;;;;;;;23.80;16.13;;;19.30;99.90;;;;;;5072391;28;20017;-71
2021/07/09 07:42:41;;;;;;;25.88;16.27;;;19.60;99.90;;;;;;5071315;28;20074;-72
2021/07/09 07:45:10;;;;;;;26.75;15.18;;;19.60;99.90;;;;;;5054555;28;20028;-73
2021/07/09 07:47:36;;;;;;;21.58;15.10;;;19.60;99.90;;;;;;5055097;28;20044;-72
2021/07/09 07:50:02;;;;;;;19.83;15.05;;;19.90;99.90;;;;;;5073948;28;20024;-72
2021/07/09 07:52:28;;;;;;;22.92;14.30;;;19.80;99.90;;;;;;5053469;28;20051;-72
2021/07/09 07:54:53;;;;;;;21.98;13.30;;;19.90;99.90;;;;;;5072473;28;20470;-72
2021/07/09 07:57:19;;;;;;;22.15;13.50;;;19.80;99.90;;;;;;5072310;28;20083;-71
2021/07/09 07:59:45;;;;;;;19.60;13.25;;;20.00;99.90;;;;;;5055547;28;20024;-71
2021/07/09 08:02:11;;;;;;;21.70;13.05;;;20.10;99.90;;;;;;5068431;28;20418;-70
2021/07/09 08:04:37;;;;;;;18.30;11.77;;;20.20;99.90;;;;;;5061990;28;20432;-72
2021/07/09 08:07:03;;;;;;;16.90;11.93;;;20.10;99.90;;;;;;5071323;28;20028;-70
2021/07/09 08:09:29;;;;;;;14.38;11.20;;;20.30;99.90;;;;;;5058132;28;20496;-70
2021/07/09 08:11:56;;;;;;;16.52;11.20;;;20.60;99.90;;;;;;5059235;28;20509;-70
2021/07/09 08:14:22;;;;;;;15.63;11.38;;;20.80;99.90;;;;;;5075817;28;20478;-70
2021/07/09 08:16:51;;;;;;;17.98;12.18;;;21.00;99.90;;;;;;5075153;28;20378;-72
2021/07/09 08:19:18;;;;;;;15.82;11.35;;;21.10;99.90;;;;;;5075846;28;20035;-74
2021/07/09 08:21:46;;;;;;;17.48;10.40;;;21.20;99.90;;;;;;5058401;28;20068;-74
2021/07/09 08:24:12;;;;;;;16.50;10.32;;;21.10;99.90;;;;;;5076578;28;20386;-74
2021/07/09 08:26:38;;;;;;;14.48;10.07;;;21.20;99.90;;;;;;5076659;28;20082;-74
2021/07/09 08:29:03;;;;;;;14.35;10.18;;;21.10;99.90;;;;;;5058275;28;20545;-74
2021/07/09 08:31:30;;;;;;;18.25;10.45;;;21.30;99.90;;;;;;5076655;28;20028;-74
2021/07/09 08:33:55;;;;;;;11.65;9.40;;;21.40;99.90;;;;;;5038850;28;20025;-75
2021/07/09 08:36:23;;;;;;;13.10;10.07;;;21.60;99.90;;;;;;5067394;28;20025;-75
2021/07/09 08:38:49;;;;;;;15.70;9.90;;;21.90;99.90;;;;;;5074525;28;20024;-73
2021/07/09 08:41:15;;;;;;;16.05;9.48;;;22.30;99.90;;;;;;5056979;28;20093;-72
2021/07/09 08:43:42;;;;;;;17.02;9.55;;;22.40;99.90;;;;;;5073937;28;20485;-72
2021/07/09 08:46:10;;;;;;;12.75;9.07;;;22.70;99.90;;;;;;5074844;28;20040;-72
2021/07/09 08:48:40;;;;;;;13.77;9.13;;;23.60;99.90;;;;;;5076259;28;20385;-73
2021/07/09 08:51:06;;;;;;;15.80;10.02;;;23.80;99.90;;;;;;5056080;28;20066;-68
2021/07/09 08:53:32;;;;;;;11.02;8.15;;;23.10;99.90;;;;;;5058234;28;20023;-68
2021/07/09 08:55:58;;;;;;;12.40;8.50;;;23.50;99.90;;;;;;5074953;28;20027;-70
2021/07/09 08:58:24;;;;;;;13.88;8.75;;;23.40;99.90;;;;;;5049380;28;20029;-68
2021/07/09 09:00:50;;;;;;;14.38;8.90;;;23.20;99.90;;;;;;5074503;28;20051;-67
2021/07/09 09:03:24;;;;;;;15.25;9.05;;;23.00;99.90;;;;;;5074794;28;20119;-70
2021/07/09 09:05:50;;;;;;;12.98;9.13;;;22.80;99.90;;;;;;5056032;28;20082;-67
2021/07/09 09:08:21;;;;;;;12.90;9.20;;;22.80;99.90;;;;;;5052648;28;20025;-67
2021/07/09 09:10:50;;;;;;;13.90;8.98;;;22.60;99.90;;;;;;5073445;28;20065;-70
2021/07/09 09:13:18;;;;;;;14.27;9.07;;;23.00;99.90;;;;;;5073028;28;20021;-68
2021/07/09 09:16:06;;;;;;;13.50;8.90;;;23.40;99.90;;;;;;5074839;28;20035;-70
2021/07/09 09:18:36;;;;;;;13.30;10.45;;;23.20;99.90;;;;;;5072355;28;20024;-70
2021/07/09 09:21:06;;;;;;;16.65;9.75;;;23.60;99.90;;;;;;5074921;28;20047;-70
2021/07/09 09:23:35;;;;;;;12.68;9.60;;;23.50;99.90;;;;;;5037459;28;20032;-70
2021/07/09 09:26:06;;;;;;;13.48;9.38;;;23.70;99.90;;;;;;5054810;28;20025;-69
2021/07/09 09:28:36;;;;;;;12.18;9.73;;;23.90;99.90;;;;;;5057038;28;20492;-70
2021/07/09 09:31:02;;;;;;;12.02;9.15;;;24.00;99.90;;;;;;5073256;28;20047;-69
2021/07/09 09:33:34;;;;;;;18.95;10.05;;;24.00;99.90;;;;;;5074927;28;20028;-70
2021/07/09 09:36:05;;;;;;;13.48;10.55;;;24.10;99.90;;;;;;5073650;28;20025;-70
2021/07/09 09:38:32;;;;;;;16.13;10.30;;;24.30;99.90;;;;;;5074521;28;20043;-69
2021/07/09 09:40:59;;;;;;;14.70;10.50;;;23.80;99.90;;;;;;5055046;28;20075;-69
2021/07/09 09:43:29;;;;;;;17.38;10.95;;;23.60;99.90;;;;;;5075025;28;20031;-70
2021/07/09 09:46:05;;;;;;;12.88;10.60;;;23.40;99.90;;;;;;5074361;28;20029;-70
2021/07/09 09:51:36;;;;;;;16.77;11.15;;;23.10;99.90;;;;;;5120156;27;20524;-70
2021/07/09 09:54:05;;;;;;;16.95;11.18;;;22.80;99.90;;;;;;5093020;28;20437;-72
2021/07/09 09:56:47;;;;;;;13.45;10.55;;;23.10;99.90;;;;;;5106731;28;20012;-71
2021/07/09 09:59:19;;;;;;;16.52;11.25;;;23.50;99.90;;;;;;5110931;28;20047;-71
2021/07/09 10:01:51;;;;;;;16.10;11.18;;;23.70;99.90;;;;;;5104656;28;20548;-71
2021/07/09 10:04:17;;;;;;;16.25;10.68;;;24.00;99.90;;;;;;5096378;28;20122;-71
2021/07/09 10:06:44;;;;;;;16.48;10.77;;;24.20;99.90;;;;;;5107355;28;20074;-71
2021/07/09 10:09:12;;;;;;;12.40;9.48;;;24.80;99.90;;;;;;5105158;28;20449;-71
2021/07/09 10:11:39;;;;;;;14.93;11.32;;;25.70;99.90;;;;;;5113080;28;20020;-72
2021/07/09 10:14:10;;;;;;;14.35;11.07;;;26.00;99.90;;;;;;5127408;28;20042;-71
2021/07/09 10:16:39;;;;;;;13.75;10.07;;;26.30;99.90;;;;;;5120949;28;20524;-71
2021/07/09 10:19:14;;;;;;;19.60;11.68;;;27.10;99.90;;;;;;5102136;28;20031;-71
2021/07/09 10:21:39;;;;;;;13.15;9.85;;;26.60;99.90;;;;;;5079388;28;20074;-71
2021/07/09 10:24:07;;;;;;;12.68;10.18;;;26.60;99.90;;;;;;5110361;28;20055;-71
2021/07/09 10:26:39;;;;;;;16.17;11.27;;;26.80;99.90;;;;;;5079433;28;20058;-71
2021/07/09 10:29:11;;;;;;;14.07;9.88;;;26.50;99.90;;;;;;5111850;28;20443;-71
2021/07/09 10:31:38;;;;;;;12.63;9.65;;;26.00;99.90;;;;;;5129947;28;20023;-71
2021/07/09 10:34:28;;;;;;;11.00;9.68;;;26.10;99.90;;;;;;5108684;28;20079;-71
2021/07/09 10:36:58;;;;;;;17.73;11.63;;;25.60;99.90;;;;;;5107688;28;20366;-71
2021/07/09 10:39:33;;;;;;;13.63;10.60;;;26.20;99.90;;;;;;5112258;28;20019;-70
2021/07/09 10:42:22;;;;;;;12.68;10.20;;;26.30;99.90;;;;;;5129718;28;20072;-70
2021/07/09 10:45:14;;;;;;;14.95;11.75;;;25.50;99.90;;;;;;5124425;28;20032;-70
2021/07/09 10:47:48;;;;;;;14.38;10.73;;;25.90;99.90;;;;;;5128384;28;20110;-70
2021/07/09 10:50:20;;;;;;;16.70;11.65;;;25.70;99.90;;;;;;5092505;28;20039;-70
2021/07/09 10:53:05;;;;;;;15.10;12.77;;;25.70;99.90;;;;;;5085552;28;20111;-70
2021/07/09 10:55:36;;;;;;;15.90;11.00;;;25.30;99.90;;;;;;5111277;28;20545;-71
2021/07/09 11:00:55;;;;;;;14.25;9.65;;;24.60;99.90;;;;;;5070135;27;20390;-70
2021/07/09 11:03:39;;;;;;;10.20;9.10;;;25.10;99.90;;;;;;5068832;28;20047;-71
2021/07/09 11:09:12;;;;;;;11.48;10.25;;;25.20;99.90;;;;;;5110193;27;20417;-70
2021/07/09 11:11:49;;;;;;;11.38;9.77;;;25.20;99.90;;;;;;5096659;28;20036;-71
2021/07/09 11:17:00;;;;;;;10.30;7.13;;;25.50;99.90;;;;;;5130866;27;20383;-71
2021/07/09 11:19:34;;;;;;;9.05;6.80;;;25.80;99.90;;;;;;5113920;28;20053;-70
2021/07/09 11:22:06;;;;;;;10.77;7.43;;;25.70;99.90;;;;;;5112795;28;20126;-70
2021/07/09 11:24:51;;;;;;;10.40;7.70;;;25.20;99.90;;;;;;5092686;28;20028;-71
2021/07/09 11:27:18;;;;;;;9.60;6.97;;;25.30;99.90;;;;;;5082566;28;20387;-71
2021/07/09 11:29:47;;;;;;;9.57;7.85;;;25.20;99.90;;;;;;5079577;28;20039;-72
2021/07/09 11:32:16;;;;;;;10.45;9.07;;;24.80;99.90;;;;;;5089523;28;20024;-71
2021/07/09 11:34:45;;;;;;;10.48;7.70;;;24.80;99.90;;;;;;5113096;28;20032;-71
2021/07/09 11:37:14;;;;;;;12.18;8.10;;;24.90;99.90;;;;;;5092302;28;20024;-71
2021/07/09 11:39:43;;;;;;;9.77;7.82;;;25.10;99.90;;;;;;5110190;28;20028;-71
2021/07/09 11:44:56;;;;;;;9.25;6.95;;;25.50;99.90;;;;;;5132347;27;20716;-71
2021/07/09 11:47:28;;;;;;;9.98;8.25;;;25.90;99.90;;;;;;5084814;28;20032;-71
2021/07/09 11:50:04;;;;;;;9.70;7.18;;;26.40;99.90;;;;;;5057008;28;20431;-69
2021/07/09 11:52:33;;;;;;;8.00;7.20;;;26.50;99.90;;;;;;5058167;28;20032;-70
2021/07/09 11:55:02;;;;;;;9.27;7.80;;;26.80;99.90;;;;;;5098156;28;20078;-71
2021/07/09 11:57:30;;;;;;;7.03;6.05;;;27.00;99.90;;;;;;5060954;28;20032;-74
2021/07/09 11:59:58;;;;;;;7.05;6.03;;;27.20;99.90;;;;;;5090819;28;20032;-74
2021/07/09 12:02:28;;;;;;;8.13;7.32;;;27.10;99.90;;;;;;5094832;28;20088;-74
2021/07/09 12:04:56;;;;;;;10.85;6.80;;;26.30;99.90;;;;;;5102584;28;20048;-74
2021/07/09 12:07:31;;;;;;;7.10;6.03;;;25.20;99.90;;;;;;5093059;28;20032;-74
2021/07/09 12:10:03;;;;;;;7.93;4.43;;;25.40;99.90;;;;;;5096451;28;20020;-76
2021/07/09 12:12:34;;;;;;;5.30;4.73;;;25.90;99.90;;;;;;5111059;28;20062;-75
2021/07/09 12:15:06;;;;;;;6.63;4.50;;;26.30;99.90;;;;;;5109174;28;20264;-76
2021/07/09 12:17:37;;;;;;;6.93;4.90;;;26.40;99.90;;;;;;5110972;28;20028;-76
2021/07/09 12:20:14;;;;;;;6.57;5.00;;;26.40;99.90;;;;;;5098562;28;20038;-76
2021/07/09 12:22:44;;;;;;;5.85;5.25;;;26.50;99.90;;;;;;5090022;28;20028;-76
2021/07/09 12:25:14;;;;;;;6.38;4.43;;;26.10;99.90;;;;;;5079453;28;20565;-76
2021/07/09 12:27:41;;;;;;;7.90;5.45;;;26.20;99.90;;;;;;5101556;28;20052;-76
2021/07/09 12:30:12;;;;;;;9.77;5.68;;;26.00;99.90;;;;;;5099378;28;20020;-76
2021/07/09 12:32:56;;;;;;;8.32;6.97;;;25.80;99.90;;;;;;5100754;28;20099;-76
2021/07/09 12:35:23;;;;;;;9.70;6.72;;;25.60;99.90;;;;;;5095437;28;20051;-76
2021/07/09 12:38:10;;;;;;;7.85;6.43;;;25.30;99.90;;;;;;5108856;28;20477;-76
2021/07/09 12:40:39;;;;;;;8.07;6.53;;;24.90;99.90;;;;;;5110228;28;20028;-76
2021/07/09 12:43:21;;;;;;;12.13;8.15;;;24.40;99.90;;;;;;5102094;28;20441;-76
2021/07/09 12:46:05;;;;;;;8.43;7.05;;;24.20;99.90;;;;;;5070641;28;20021;-76
2021/07/09 12:48:37;;;;;;;15.65;7.70;;;24.30;99.90;;;;;;5070826;28;20023;-76